createdAt,value
2022-11-06T05:00:28.572Z,90.74
2022-11-06T05:01:28.600Z,90.99
2022-11-06T05:02:28.573Z,91.09
2022-11-06T05:03:28.479Z,91.82
2022-11-06T05:04:28.466Z,91.82
2022-11-06T05:05:28.454Z,91.92
2022-11-06T05:06:30.118Z,91.61
2022-11-06T05:07:28.443Z,91.40
2022-11-06T05:08:28.421Z,91.92
2022-11-06T05:09:28.427Z,92.02
2022-11-06T05:10:28.399Z,92.02
2022-11-06T05:11:33.426Z,91.77
2022-11-06T05:12:28.378Z,91.71
2022-11-06T05:13:28.362Z,91.77
2022-11-06T05:14:28.371Z,91.71
2022-11-06T05:15:28.343Z,91.36
2022-11-06T05:16:28.350Z,91.46
2022-11-06T05:17:30.536Z,91.50
2022-11-06T05:18:29.312Z,92.08
2022-11-06T05:19:28.297Z,92.13
2022-11-06T05:20:28.287Z,92.23
2022-11-06T05:21:28.284Z,92.29
2022-11-06T05:22:33.300Z,92.19
2022-11-06T05:23:28.256Z,91.92
2022-11-06T05:24:28.241Z,92.33
2022-11-06T05:25:28.230Z,92.23
2022-11-06T05:26:28.222Z,92.54
2022-11-06T05:27:28.219Z,92.13
2022-11-06T05:28:28.195Z,92.08
2022-11-06T05:29:28.189Z,92.23
2022-11-06T05:30:28.205Z,91.67
2022-11-06T05:31:28.162Z,91.50
2022-11-06T05:32:30.906Z,91.61
2022-11-06T05:33:33.160Z,91.82
2022-11-06T05:34:28.137Z,91.50
2022-11-06T05:35:28.127Z,91.61
2022-11-06T05:36:28.105Z,91.92
2022-11-06T05:37:28.105Z,91.88
2022-11-06T05:38:28.178Z,91.82
2022-11-06T05:39:28.073Z,91.82
2022-11-06T05:40:28.060Z,91.67
2022-11-06T05:41:28.059Z,91.71
2022-11-06T05:42:28.155Z,91.56
2022-11-06T05:43:28.026Z,91.82
2022-11-06T05:44:33.040Z,91.92
2022-11-06T05:45:28.016Z,91.82
2022-11-06T05:46:48.756Z,91.82
2022-11-06T05:47:29.084Z,91.77
2022-11-06T05:48:27.993Z,91.98
2022-11-06T05:49:27.959Z,91.82
2022-11-06T05:50:27.951Z,91.82
2022-11-06T05:51:27.936Z,91.16
2022-11-06T05:52:27.946Z,90.37
2022-11-06T05:53:27.943Z,90.68
2022-11-06T05:54:27.903Z,90.78
2022-11-06T05:55:32.913Z,90.26
2022-11-06T05:56:27.875Z,90.26
2022-11-06T05:57:27.901Z,90.37
2022-11-06T05:58:27.887Z,90.06
2022-11-06T05:59:27.852Z,90.64
2022-11-06T06:00:27.837Z,90.16
2022-11-06T06:01:27.918Z,90.16
2022-11-06T06:02:28.053Z,90.43
2022-11-06T06:03:27.808Z,90.99
2022-11-06T06:04:27.831Z,90.99
2022-11-06T06:05:27.776Z,90.78
2022-11-06T06:06:32.809Z,91.30
2022-11-06T06:07:27.768Z,91.09
2022-11-06T06:08:27.744Z,90.58
2022-11-06T06:09:27.730Z,90.62
2022-11-06T06:10:27.726Z,90.89
2022-11-06T06:11:27.711Z,91.13
2022-11-06T06:12:27.715Z,90.93
2022-11-06T06:13:27.689Z,91.03
2022-11-06T06:14:27.670Z,91.13
2022-11-06T06:15:27.670Z,90.93
2022-11-06T06:16:27.649Z,91.03
2022-11-06T06:17:32.680Z,91.17
2022-11-06T06:18:27.633Z,91.38
2022-11-06T06:19:27.620Z,92.00
2022-11-06T06:20:27.622Z,92.00
2022-11-06T06:21:27.592Z,91.80
2022-11-06T06:22:27.605Z,91.69
2022-11-06T06:23:27.571Z,91.69
2022-11-06T06:24:27.687Z,91.49
2022-11-06T06:25:27.655Z,92.15
2022-11-06T06:26:27.539Z,92.25
2022-11-06T06:27:27.536Z,92.77
2022-11-06T06:28:32.543Z,92.67
2022-11-06T06:29:27.502Z,92.87
2022-11-06T06:30:27.500Z,92.97
2022-11-06T06:31:27.477Z,93.08
2022-11-06T06:32:27.477Z,93.18
2022-11-06T06:33:27.458Z,92.97
2022-11-06T06:34:27.451Z,93.39
2022-11-06T06:35:27.432Z,93.08
2022-11-06T06:36:27.452Z,93.18
2022-11-06T06:37:27.424Z,93.29
2022-11-06T06:38:27.400Z,92.97
2022-11-06T06:39:32.415Z,92.97
2022-11-06T06:40:27.381Z,92.77
2022-11-06T06:41:27.382Z,92.57
2022-11-06T06:42:31.240Z,92.71
2022-11-06T06:43:27.352Z,92.40
2022-11-06T06:44:27.339Z,92.71
2022-11-06T06:45:27.329Z,92.71
2022-11-06T06:46:27.311Z,92.81
2022-11-06T06:47:27.303Z,92.81
2022-11-06T06:48:27.320Z,92.71
2022-11-06T06:49:27.274Z,93.02
2022-11-06T06:50:32.289Z,93.58
2022-11-06T06:51:27.252Z,94.16
2022-11-06T06:52:27.347Z,94.20
2022-11-06T06:53:27.262Z,93.89
2022-11-06T06:54:27.221Z,93.99
2022-11-06T06:55:27.214Z,93.99
2022-11-06T06:56:27.198Z,93.85
2022-11-06T06:57:27.187Z,93.68
2022-11-06T06:58:27.195Z,93.99
2022-11-06T06:59:27.162Z,93.85
2022-11-06T07:00:27.151Z,93.99
2022-11-06T07:01:32.302Z,93.79
2022-11-06T07:02:27.234Z,93.79
2022-11-06T07:03:27.131Z,93.33
2022-11-06T07:04:27.105Z,93.54
2022-11-06T07:05:27.096Z,93.12
2022-11-06T07:06:27.085Z,93.95
2022-11-06T07:07:27.108Z,93.54
2022-11-06T07:08:27.093Z,93.02
2022-11-06T07:09:27.047Z,93.12
2022-11-06T07:10:27.050Z,92.91
2022-11-06T07:11:27.026Z,93.02
2022-11-06T07:12:32.038Z,93.12
2022-11-06T07:13:29.321Z,93.12
2022-11-06T07:14:27.999Z,92.91
2022-11-06T07:15:26.982Z,93.08
2022-11-06T07:16:26.973Z,92.97
2022-11-06T07:17:26.958Z,92.57
2022-11-06T07:18:26.960Z,92.77
2022-11-06T07:19:26.940Z,92.25
2022-11-06T07:20:26.927Z,91.59
2022-11-06T07:21:26.918Z,91.63
2022-11-06T07:22:32.358Z,91.80
2022-11-06T07:23:32.959Z,92.05
2022-11-06T07:24:26.883Z,91.90
2022-11-06T07:25:26.871Z,91.90
2022-11-06T07:26:26.858Z,91.38
2022-11-06T07:27:26.848Z,92.00
2022-11-06T07:28:26.844Z,91.38
2022-11-06T07:29:26.825Z,91.03
2022-11-06T07:30:26.815Z,90.93
2022-11-06T07:31:26.802Z,90.26
2022-11-06T07:32:26.791Z,90.26
2022-11-06T07:33:26.799Z,90.52
2022-11-06T07:34:31.802Z,90.89
2022-11-06T07:35:26.797Z,90.16
2022-11-06T07:36:26.753Z,90.58
2022-11-06T07:37:26.774Z,90.64
2022-11-06T07:38:26.736Z,90.22
2022-11-06T07:39:26.828Z,90.12
2022-11-06T07:40:26.700Z,89.50
2022-11-06T07:41:26.690Z,89.29
2022-11-06T07:42:26.687Z,89.40
2022-11-06T07:43:26.678Z,89.81
2022-11-06T07:44:26.661Z,89.81
2022-11-06T07:45:31.664Z,89.50
2022-11-06T07:46:26.648Z,89.50
2022-11-06T07:47:26.622Z,89.19
2022-11-06T07:48:26.622Z,89.09
2022-11-06T07:49:26.606Z,88.84
2022-11-06T07:50:26.586Z,89.15
2022-11-06T07:51:26.577Z,88.74
2022-11-06T07:52:26.567Z,88.64
2022-11-06T07:53:26.567Z,88.95
2022-11-06T07:54:26.541Z,88.43
2022-11-06T07:55:26.636Z,88.64
2022-11-06T07:56:31.544Z,88.18
2022-11-06T07:57:26.542Z,88.29
2022-11-06T07:58:26.518Z,87.56
2022-11-06T07:59:26.490Z,87.46
2022-11-06T08:00:26.473Z,87.56
2022-11-06T08:01:26.727Z,89.22
2022-11-06T08:02:26.556Z,88.24
2022-11-06T08:03:26.450Z,87.52
2022-11-06T08:04:26.433Z,87.52
2022-11-06T08:05:26.415Z,87.11
2022-11-06T08:06:26.407Z,87.01
2022-11-06T08:07:31.495Z,88.24
2022-11-06T08:08:26.409Z,87.27
2022-11-06T08:09:26.391Z,86.15
2022-11-06T08:10:26.371Z,86.97
2022-11-06T08:11:26.372Z,86.55
2022-11-06T08:12:26.355Z,86.35
2022-11-06T08:13:26.334Z,86.04
2022-11-06T08:14:26.316Z,86.24
2022-11-06T08:15:26.301Z,86.45
2022-11-06T08:16:26.292Z,86.24
2022-11-06T08:17:26.279Z,86.87
2022-11-06T08:18:31.306Z,86.82
2022-11-06T08:19:26.257Z,86.45
2022-11-06T08:20:26.251Z,86.76
2022-11-06T08:21:26.267Z,87.42
2022-11-06T08:22:26.224Z,87.63
2022-11-06T08:23:26.215Z,87.52
2022-11-06T08:24:26.214Z,87.83
2022-11-06T08:25:26.189Z,87.83
2022-11-06T08:26:26.180Z,87.83
2022-11-06T08:27:26.185Z,87.63
2022-11-06T08:28:26.161Z,87.73
2022-11-06T08:29:31.181Z,88.04
2022-11-06T08:30:26.176Z,88.20
2022-11-06T08:31:26.122Z,88.10
2022-11-06T08:32:26.112Z,87.90
2022-11-06T08:33:26.115Z,87.79
2022-11-06T08:34:26.095Z,87.34
2022-11-06T08:35:26.103Z,87.34
2022-11-06T08:36:26.079Z,87.34
2022-11-06T08:37:26.052Z,87.13
2022-11-06T08:38:26.067Z,86.61
2022-11-06T08:39:26.033Z,86.93
2022-11-06T08:40:31.558Z,87.03
2022-11-06T08:41:26.012Z,86.79
2022-11-06T08:42:25.998Z,86.47
2022-11-06T08:43:26.021Z,85.65
2022-11-06T08:44:25.978Z,85.75
2022-11-06T08:45:25.975Z,85.75
2022-11-06T08:46:25.965Z,85.65
2022-11-06T08:47:25.940Z,85.55
2022-11-06T08:48:25.932Z,85.86
2022-11-06T08:49:25.932Z,86.37
2022-11-06T08:50:25.907Z,86.31
2022-11-06T08:51:31.146Z,86.61
2022-11-06T08:52:29.864Z,86.47
2022-11-06T08:53:26.951Z,85.96
2022-11-06T08:54:25.878Z,85.61
2022-11-06T08:55:25.867Z,84.81
2022-11-06T08:56:25.839Z,84.26
2022-11-06T08:57:25.830Z,81.59
2022-11-06T08:58:25.851Z,82.45
2022-11-06T08:59:25.930Z,82.62
2022-11-06T09:00:25.871Z,82.17
2022-11-06T09:01:25.983Z,81.10
2022-11-06T09:02:30.841Z,81.20
2022-11-06T09:03:25.761Z,79.87
2022-11-06T09:04:25.762Z,80.18
2022-11-06T09:05:25.737Z,80.18
2022-11-06T09:06:25.728Z,79.93
2022-11-06T09:07:25.722Z,79.18
2022-11-06T09:08:25.709Z,78.25
2022-11-06T09:09:25.710Z,77.87
2022-11-06T09:10:25.742Z,77.16
2022-11-06T09:11:25.673Z,76.57
2022-11-06T09:12:25.660Z,74.94
2022-11-06T09:13:30.669Z,74.94
2022-11-06T09:14:25.651Z,74.49
2022-11-06T09:15:25.742Z,72.58
2022-11-06T09:16:25.614Z,73.64
2022-11-06T09:17:25.623Z,73.81
2022-11-06T09:18:25.605Z,73.20
2022-11-06T09:19:25.580Z,73.44
2022-11-06T09:20:25.680Z,72.55
2022-11-06T09:21:25.558Z,72.55
2022-11-06T09:22:25.545Z,73.06
2022-11-06T09:23:25.539Z,74.26
2022-11-06T09:24:50.041Z,74.77
2022-11-06T09:25:26.523Z,75.11
2022-11-06T09:26:25.505Z,74.80
2022-11-06T09:27:25.488Z,75.31
2022-11-06T09:28:25.555Z,74.97
2022-11-06T09:29:25.467Z,74.36
2022-11-06T09:30:25.536Z,73.03
2022-11-06T09:31:25.459Z,73.68
2022-11-06T09:32:25.439Z,74.80
2022-11-06T09:33:25.421Z,74.53
2022-11-06T09:34:25.416Z,75.08
2022-11-06T09:35:30.432Z,75.32
2022-11-06T09:36:25.393Z,76.51
2022-11-06T09:37:25.375Z,75.32
2022-11-06T09:38:25.363Z,75.83
2022-11-06T09:39:25.355Z,75.83
2022-11-06T09:40:25.480Z,75.01
2022-11-06T09:41:25.327Z,74.91
2022-11-06T09:42:25.320Z,75.93
2022-11-06T09:43:50.194Z,76.14
2022-11-06T09:44:26.300Z,76.86
2022-11-06T09:45:25.294Z,76.41
2022-11-06T09:46:30.312Z,76.41
2022-11-06T09:47:25.260Z,75.66
2022-11-06T09:48:25.250Z,75.15
2022-11-06T09:49:25.237Z,74.80
2022-11-06T09:50:25.322Z,75.04
2022-11-06T09:51:25.216Z,74.53
2022-11-06T09:52:25.229Z,74.87
2022-11-06T09:53:25.203Z,74.87
2022-11-06T09:54:25.184Z,74.84
2022-11-06T09:55:25.177Z,74.26
2022-11-06T09:56:25.176Z,74.87
2022-11-06T09:57:30.170Z,74.98
2022-11-06T09:58:25.138Z,76.20
2022-11-06T09:59:25.137Z,76.00
2022-11-06T10:00:25.179Z,75.24
2022-11-06T10:01:27.555Z,75.35
2022-11-06T10:02:25.381Z,75.24
2022-11-06T10:03:25.082Z,74.53
2022-11-06T10:04:25.070Z,74.22
2022-11-06T10:05:25.056Z,74.53
2022-11-06T10:06:25.120Z,74.53
2022-11-06T10:07:25.045Z,74.84
2022-11-06T10:08:30.056Z,74.32
2022-11-06T10:09:25.011Z,74.12
2022-11-06T10:10:25.010Z,74.02
2022-11-06T10:11:25.001Z,74.53
2022-11-06T10:12:24.980Z,74.53
2022-11-06T10:13:24.971Z,74.49
2022-11-06T10:14:24.959Z,74.19
2022-11-06T10:15:24.944Z,73.50
2022-11-06T10:16:24.943Z,73.16
2022-11-06T10:17:24.926Z,72.65
2022-11-06T10:18:25.012Z,72.55
2022-11-06T10:19:29.922Z,72.65
2022-11-06T10:20:27.292Z,72.55
2022-11-06T10:21:24.893Z,72.75
2022-11-06T10:22:24.915Z,73.16
2022-11-06T10:23:24.912Z,72.20
2022-11-06T10:24:24.846Z,71.93
2022-11-06T10:25:24.852Z,72.65
2022-11-06T10:26:26.820Z,71.52
2022-11-06T10:27:25.806Z,72.55
2022-11-06T10:28:24.799Z,72.65
2022-11-06T10:29:24.786Z,73.06
2022-11-06T10:30:30.082Z,73.36
2022-11-06T10:31:24.785Z,73.16
2022-11-06T10:32:24.751Z,73.06
2022-11-06T10:33:24.741Z,72.86
2022-11-06T10:34:24.752Z,72.96
2022-11-06T10:35:24.716Z,73.06
2022-11-06T10:36:24.719Z,73.13
2022-11-06T10:37:24.693Z,73.06
2022-11-06T10:38:24.682Z,72.86
2022-11-06T10:39:24.681Z,72.75
2022-11-06T10:40:24.663Z,72.72
2022-11-06T10:41:29.827Z,72.82
2022-11-06T10:42:24.636Z,72.52
2022-11-06T10:43:24.641Z,73.03
2022-11-06T10:44:24.701Z,73.85
2022-11-06T10:45:24.654Z,73.23
2022-11-06T10:46:24.601Z,73.23
2022-11-06T10:47:24.589Z,72.72
2022-11-06T10:48:29.918Z,72.78
2022-11-06T10:49:25.589Z,73.64
2022-11-06T10:50:24.579Z,73.85
2022-11-06T10:51:24.550Z,73.20
2022-11-06T10:52:29.570Z,73.64
2022-11-06T10:53:24.517Z,73.40
2022-11-06T10:54:24.500Z,73.71
2022-11-06T10:55:24.504Z,73.81
2022-11-06T10:56:24.493Z,72.99
2022-11-06T10:57:24.470Z,73.40
2022-11-06T10:58:24.454Z,73.91
2022-11-06T10:59:24.447Z,74.43
2022-11-06T11:00:24.432Z,74.49
2022-11-06T11:01:24.601Z,73.78
2022-11-06T11:02:24.493Z,73.06
2022-11-06T11:03:29.430Z,72.75
2022-11-06T11:04:24.387Z,72.62
2022-11-06T11:05:24.378Z,73.85
2022-11-06T11:06:24.398Z,72.72
2022-11-06T11:07:24.356Z,73.03
2022-11-06T11:08:24.354Z,72.92
2022-11-06T11:09:24.335Z,72.92
2022-11-06T11:10:24.321Z,72.72
2022-11-06T11:11:24.319Z,72.75
2022-11-06T11:12:24.321Z,73.68
2022-11-06T11:13:24.293Z,74.22
2022-11-06T11:14:29.294Z,74.22
2022-11-06T11:15:24.263Z,75.04
2022-11-06T11:16:24.419Z,74.49
2022-11-06T11:17:24.276Z,73.33
2022-11-06T11:18:24.243Z,73.44
2022-11-06T11:19:24.234Z,72.62
2022-11-06T11:20:24.208Z,73.13
2022-11-06T11:21:24.296Z,72.69
2022-11-06T11:22:26.639Z,72.38
2022-11-06T11:23:25.222Z,72.34
2022-11-06T11:24:24.193Z,71.22
2022-11-06T11:25:29.187Z,71.22
2022-11-06T11:26:24.307Z,71.22
2022-11-06T11:27:24.147Z,70.71
2022-11-06T11:28:24.118Z,70.71
2022-11-06T11:29:24.115Z,70.84
2022-11-06T11:30:24.096Z,70.75
2022-11-06T11:31:24.084Z,70.95
2022-11-06T11:32:24.124Z,70.95
2022-11-06T11:33:24.069Z,70.67
2022-11-06T11:34:24.049Z,71.19
2022-11-06T11:35:24.044Z,71.77
2022-11-06T11:36:29.054Z,71.56
2022-11-06T11:37:24.025Z,71.39
2022-11-06T11:38:24.073Z,72.41
2022-11-06T11:39:23.999Z,72.62
2022-11-06T11:40:23.982Z,72.58
2022-11-06T11:41:24.091Z,72.28
2022-11-06T11:42:23.984Z,71.29
2022-11-06T11:43:23.954Z,71.36
2022-11-06T11:44:23.937Z,71.25
2022-11-06T11:45:23.929Z,72.17
2022-11-06T11:46:23.916Z,72.38
2022-11-06T11:47:28.932Z,71.77
2022-11-06T11:48:23.889Z,71.66
2022-11-06T11:49:23.881Z,70.84
2022-11-06T11:50:23.865Z,70.95
2022-11-06T11:51:23.866Z,71.05
2022-11-06T11:52:23.877Z,70.43
2022-11-06T11:53:23.840Z,71.19
2022-11-06T11:54:23.957Z,71.39
2022-11-06T11:55:23.826Z,71.59
2022-11-06T11:56:49.723Z,71.46
2022-11-06T11:57:24.849Z,71.46
2022-11-06T11:58:28.804Z,71.05
2022-11-06T11:59:23.816Z,71.15
2022-11-06T12:00:23.752Z,71.46
2022-11-06T12:01:23.806Z,71.05
2022-11-06T12:02:27.385Z,72.38
2022-11-06T12:03:23.919Z,70.95
2022-11-06T12:04:23.915Z,71.97
2022-11-06T12:05:23.697Z,72.38
2022-11-06T12:06:23.686Z,71.97
2022-11-06T12:07:23.723Z,72.28
2022-11-06T12:08:23.677Z,71.97
2022-11-06T12:09:28.689Z,70.64
2022-11-06T12:10:23.640Z,70.95
2022-11-06T12:11:23.660Z,70.71
2022-11-06T12:12:23.628Z,70.71
2022-11-06T12:13:23.662Z,70.81
2022-11-06T12:14:23.597Z,71.01
2022-11-06T12:15:23.625Z,70.71
2022-11-06T12:16:23.572Z,70.92
2022-11-06T12:17:23.608Z,70.71
2022-11-06T12:18:23.548Z,71.22
2022-11-06T12:19:23.576Z,71.33
2022-11-06T12:20:28.549Z,71.33
2022-11-06T12:21:23.514Z,71.42
2022-11-06T12:22:23.521Z,71.33
2022-11-06T12:23:23.494Z,71.19
2022-11-06T12:24:23.480Z,70.88
2022-11-06T12:25:23.490Z,71.39
2022-11-06T12:26:23.457Z,71.50
2022-11-06T12:27:23.458Z,71.29
2022-11-06T12:28:23.451Z,70.78
2022-11-06T12:29:23.424Z,70.57
2022-11-06T12:30:23.426Z,70.78
2022-11-06T12:31:28.423Z,70.78
2022-11-06T12:32:23.400Z,70.98
2022-11-06T12:33:39.819Z,70.98
2022-11-06T12:34:24.368Z,70.57
2022-11-06T12:35:23.357Z,70.88
2022-11-06T12:36:23.345Z,70.57
2022-11-06T12:37:23.356Z,70.17
2022-11-06T12:38:23.323Z,70.57
2022-11-06T12:39:23.313Z,70.57
2022-11-06T12:40:25.469Z,70.68
2022-11-06T12:41:23.311Z,70.57
2022-11-06T12:42:28.314Z,70.88
2022-11-06T12:43:23.268Z,70.68
2022-11-06T12:44:23.258Z,70.57
2022-11-06T12:45:23.250Z,70.37
2022-11-06T12:46:23.232Z,70.14
2022-11-06T12:47:26.464Z,70.27
2022-11-06T12:48:23.224Z,70.68
2022-11-06T12:49:23.202Z,70.57
2022-11-06T12:50:23.184Z,70.37
2022-11-06T12:51:23.173Z,70.57
2022-11-06T12:52:23.163Z,70.47
2022-11-06T12:53:28.189Z,70.98
2022-11-06T12:54:23.145Z,70.98
2022-11-06T12:55:23.133Z,70.37
2022-11-06T12:56:23.119Z,70.81
2022-11-06T12:57:23.210Z,70.37
2022-11-06T12:58:23.108Z,70.27
2022-11-06T12:59:23.082Z,70.78
2022-11-06T13:00:27.148Z,70.68
2022-11-06T13:01:24.173Z,70.47
2022-11-06T13:02:23.243Z,70.68
2022-11-06T13:03:23.045Z,70.57
2022-11-06T13:04:28.050Z,70.98
2022-11-06T13:05:23.014Z,70.88
2022-11-06T13:06:23.002Z,70.92
2022-11-06T13:07:23.000Z,70.81
2022-11-06T13:08:22.991Z,70.88
2022-11-06T13:09:22.988Z,70.78
2022-11-06T13:10:22.961Z,70.98
2022-11-06T13:11:22.979Z,70.57
2022-11-06T13:12:22.933Z,71.29
2022-11-06T13:13:22.955Z,70.68
2022-11-06T13:14:22.910Z,70.68
2022-11-06T13:15:27.925Z,71.09
2022-11-06T13:16:22.888Z,71.09
2022-11-06T13:17:22.879Z,70.68
2022-11-06T13:18:22.886Z,70.57
2022-11-06T13:19:22.886Z,71.39
2022-11-06T13:20:22.848Z,71.19
2022-11-06T13:21:22.842Z,71.19
2022-11-06T13:22:22.819Z,71.29
2022-11-06T13:23:22.826Z,71.19
2022-11-06T13:24:22.796Z,71.19
2022-11-06T13:25:22.791Z,71.29
2022-11-06T13:26:27.803Z,71.39
2022-11-06T13:27:22.767Z,71.29
2022-11-06T13:28:22.788Z,71.29
2022-11-06T13:29:22.763Z,70.88
2022-11-06T13:30:22.729Z,71.59
2022-11-06T13:31:22.753Z,71.29
2022-11-06T13:32:22.715Z,70.98
2022-11-06T13:33:22.702Z,72.41
2022-11-06T13:34:22.695Z,72.00
2022-11-06T13:35:22.678Z,71.80
2022-11-06T13:36:22.664Z,71.70
2022-11-06T13:37:27.678Z,72.31
2022-11-06T13:38:22.642Z,72.21
2022-11-06T13:39:22.709Z,71.70
2022-11-06T13:40:22.614Z,72.31
2022-11-06T13:41:22.608Z,72.31
2022-11-06T13:42:22.647Z,72.41
2022-11-06T13:43:22.582Z,72.21
2022-11-06T13:44:22.581Z,72.41
2022-11-06T13:45:22.594Z,71.91
2022-11-06T13:46:22.546Z,72.41
2022-11-06T13:47:22.541Z,72.24
2022-11-06T13:48:27.547Z,72.45
2022-11-06T13:49:22.573Z,73.06
2022-11-06T13:50:22.506Z,72.45
2022-11-06T13:51:22.498Z,72.96
2022-11-06T13:52:22.492Z,73.27
2022-11-06T13:53:22.478Z,73.03
2022-11-06T13:54:22.467Z,72.24
2022-11-06T13:55:22.527Z,72.96
2022-11-06T13:56:22.438Z,72.14
2022-11-06T13:57:22.424Z,72.24
2022-11-06T13:58:22.411Z,72.34
2022-11-06T13:59:32.799Z,72.96
2022-11-06T14:00:23.395Z,72.24
2022-11-06T14:01:22.552Z,72.96
2022-11-06T14:02:22.525Z,72.55
2022-11-06T14:03:22.368Z,72.86
2022-11-06T14:04:22.365Z,72.86
2022-11-06T14:05:22.340Z,72.65
2022-11-06T14:06:22.327Z,73.57
2022-11-06T14:07:22.328Z,72.96
2022-11-06T14:08:22.320Z,72.86
2022-11-06T14:09:22.309Z,72.58
2022-11-06T14:10:27.298Z,72.65
2022-11-06T14:11:22.265Z,72.89
2022-11-06T14:12:22.260Z,72.75
2022-11-06T14:13:22.264Z,73.06
2022-11-06T14:14:22.229Z,72.86
2022-11-06T14:15:22.231Z,72.75
2022-11-06T14:16:22.209Z,72.65
2022-11-06T14:17:22.300Z,73.06
2022-11-06T14:18:22.189Z,72.86
2022-11-06T14:19:22.193Z,72.55
2022-11-06T14:20:22.183Z,72.75
2022-11-06T14:21:27.173Z,72.75
2022-11-06T14:22:22.183Z,72.96
2022-11-06T14:23:22.129Z,72.55
2022-11-06T14:24:22.124Z,72.65
2022-11-06T14:25:22.116Z,72.65
2022-11-06T14:26:22.101Z,72.75
2022-11-06T14:27:22.083Z,72.86
2022-11-06T14:28:22.096Z,72.75
2022-11-06T14:29:22.060Z,72.65
2022-11-06T14:30:22.063Z,73.68
2022-11-06T14:31:27.586Z,73.06
2022-11-06T14:32:28.136Z,72.86
2022-11-06T14:33:22.016Z,73.03
2022-11-06T14:34:22.021Z,72.65
2022-11-06T14:35:21.995Z,72.62
2022-11-06T14:36:21.980Z,72.75
2022-11-06T14:37:23.935Z,72.92
2022-11-06T14:38:21.958Z,72.62
2022-11-06T14:39:21.952Z,73.64
2022-11-06T14:40:21.950Z,73.03
2022-11-06T14:41:21.930Z,72.62
2022-11-06T14:42:26.700Z,72.55
2022-11-06T14:43:27.925Z,72.52
2022-11-06T14:44:21.892Z,72.62
2022-11-06T14:45:21.902Z,72.65
2022-11-06T14:46:22.609Z,72.52
2022-11-06T14:47:21.858Z,72.72
2022-11-06T14:48:22.204Z,72.72
2022-11-06T14:49:21.834Z,72.82
2022-11-06T14:50:21.833Z,72.82
2022-11-06T14:51:21.813Z,72.62
2022-11-06T14:52:21.803Z,73.03
2022-11-06T14:53:21.792Z,72.82
2022-11-06T14:54:26.803Z,72.62
2022-11-06T14:55:21.780Z,72.65
2022-11-06T14:56:21.757Z,72.62
2022-11-06T14:57:21.749Z,72.92
2022-11-06T14:58:21.760Z,73.44
2022-11-06T14:59:21.726Z,73.33
2022-11-06T15:00:27.426Z,72.72
2022-11-06T15:01:22.827Z,72.92
2022-11-06T15:02:21.846Z,73.74
2022-11-06T15:03:21.729Z,73.64
2022-11-06T15:04:21.697Z,74.39
2022-11-06T15:05:26.685Z,73.88
2022-11-06T15:06:21.642Z,74.25
2022-11-06T15:07:33.599Z,73.98
2022-11-06T15:08:22.619Z,74.59
2022-11-06T15:09:21.606Z,74.80
2022-11-06T15:10:21.617Z,74.80
2022-11-06T15:11:21.588Z,74.69
2022-11-06T15:12:21.577Z,74.49
2022-11-06T15:13:21.572Z,74.90
2022-11-06T15:14:21.561Z,74.59
2022-11-06T15:15:21.540Z,74.90
2022-11-06T15:16:26.561Z,75.10
2022-11-06T15:17:21.517Z,75.00
2022-11-06T15:18:21.521Z,75.10
2022-11-06T15:19:21.510Z,75.41
2022-11-06T15:20:21.502Z,75.31
2022-11-06T15:21:21.482Z,75.31
2022-11-06T15:22:21.480Z,75.71
2022-11-06T15:23:21.448Z,75.62
2022-11-06T15:24:21.454Z,75.82
2022-11-06T15:25:21.446Z,76.12
2022-11-06T15:26:21.426Z,76.12
2022-11-06T15:27:26.436Z,75.92
2022-11-06T15:28:21.399Z,76.37
2022-11-06T15:29:21.397Z,76.53
2022-11-06T15:30:21.394Z,76.23
2022-11-06T15:31:21.414Z,75.96
2022-11-06T15:32:21.350Z,76.23
2022-11-06T15:33:21.350Z,75.96
2022-11-06T15:34:21.337Z,76.57
2022-11-06T15:35:21.329Z,77.39
2022-11-06T15:36:21.343Z,76.64
2022-11-06T15:37:21.291Z,76.88
2022-11-06T15:38:26.344Z,77.29
2022-11-06T15:39:21.307Z,77.29
2022-11-06T15:40:21.271Z,77.35
2022-11-06T15:41:21.266Z,77.49
2022-11-06T15:42:21.235Z,77.08
2022-11-06T15:43:21.222Z,77.15
2022-11-06T15:44:21.268Z,76.98
2022-11-06T15:45:21.210Z,77.08
2022-11-06T15:46:21.201Z,77.08
2022-11-06T15:47:21.212Z,76.94
2022-11-06T15:48:21.169Z,77.19
2022-11-06T15:49:26.201Z,77.08
2022-11-06T15:50:21.147Z,77.25
2022-11-06T15:51:21.153Z,77.49
2022-11-06T15:52:21.225Z,77.70
2022-11-06T15:53:21.115Z,77.29
2022-11-06T15:54:21.099Z,77.59
2022-11-06T15:55:23.648Z,77.80
2022-11-06T15:56:21.096Z,77.80
2022-11-06T15:57:21.077Z,77.80
2022-11-06T15:58:21.103Z,77.80
2022-11-06T15:59:21.041Z,78.41
2022-11-06T16:00:26.119Z,77.80
2022-11-06T16:01:21.115Z,77.80
2022-11-06T16:02:21.249Z,78.20
2022-11-06T16:03:21.002Z,78.31
2022-11-06T16:04:21.011Z,78.41
2022-11-06T16:05:20.971Z,78.72
2022-11-06T16:06:21.027Z,78.31
2022-11-06T16:07:20.949Z,78.52
2022-11-06T16:08:20.983Z,78.31
2022-11-06T16:09:20.946Z,78.52
2022-11-06T16:10:20.924Z,78.92
2022-11-06T16:11:25.939Z,78.92
2022-11-06T16:12:20.902Z,78.61
2022-11-06T16:13:20.892Z,78.52
2022-11-06T16:14:20.892Z,78.31
2022-11-06T16:15:20.905Z,78.86
2022-11-06T16:16:20.872Z,78.41
2022-11-06T16:17:20.841Z,78.52
2022-11-06T16:18:20.831Z,79.13
2022-11-06T16:19:20.820Z,79.02
2022-11-06T16:20:20.835Z,79.02
2022-11-06T16:21:20.813Z,79.02
2022-11-06T16:22:25.805Z,79.13
2022-11-06T16:23:20.776Z,79.23
2022-11-06T16:24:20.789Z,79.33
2022-11-06T16:25:20.774Z,79.37
2022-11-06T16:26:20.767Z,79.33
2022-11-06T16:27:20.723Z,79.74
2022-11-06T16:28:20.791Z,79.43
2022-11-06T16:29:20.833Z,79.43
2022-11-06T16:30:24.847Z,80.05
2022-11-06T16:31:20.700Z,79.33
2022-11-06T16:32:20.720Z,79.64
2022-11-06T16:33:25.748Z,79.64
2022-11-06T16:34:20.648Z,79.23
2022-11-06T16:35:20.642Z,79.23
2022-11-06T16:36:20.643Z,79.37
2022-11-06T16:37:20.612Z,79.53
2022-11-06T16:38:40.251Z,79.78
2022-11-06T16:39:21.790Z,79.94
2022-11-06T16:40:21.799Z,79.33
2022-11-06T16:41:20.582Z,79.94
2022-11-06T16:42:20.556Z,79.84
2022-11-06T16:43:20.551Z,80.25
2022-11-06T16:44:30.928Z,80.08
2022-11-06T16:45:21.532Z,79.57
2022-11-06T16:46:20.521Z,80.19
2022-11-06T16:47:20.549Z,80.29
2022-11-06T16:48:20.487Z,78.86
2022-11-06T16:49:20.474Z,79.94
2022-11-06T16:50:20.464Z,79.64
2022-11-06T16:51:20.463Z,79.47
2022-11-06T16:52:20.448Z,80.08
2022-11-06T16:53:20.430Z,80.25
2022-11-06T16:54:20.428Z,79.98
2022-11-06T16:55:25.498Z,80.19
2022-11-06T16:56:20.448Z,80.08
2022-11-06T16:57:20.392Z,80.29
2022-11-06T16:58:20.384Z,80.69
2022-11-06T16:59:20.376Z,81.01
2022-11-06T17:00:20.363Z,80.49
2022-11-06T17:01:21.114Z,80.49
2022-11-06T17:02:20.549Z,80.49
2022-11-06T17:03:20.363Z,80.90
2022-11-06T17:04:20.431Z,80.60
2022-11-06T17:05:20.302Z,80.29
2022-11-06T17:06:25.319Z,80.80
2022-11-06T17:07:20.362Z,80.69
2022-11-06T17:08:20.264Z,80.90
2022-11-06T17:09:20.325Z,81.01
2022-11-06T17:10:20.237Z,80.39
2022-11-06T17:11:20.265Z,80.80
2022-11-06T17:12:20.235Z,80.60
2022-11-06T17:13:20.202Z,80.69
2022-11-06T17:14:20.201Z,80.80
2022-11-06T17:15:20.202Z,80.69
2022-11-06T17:16:20.240Z,80.49
2022-11-06T17:17:25.190Z,81.31
2022-11-06T17:18:20.155Z,81.72
2022-11-06T17:19:20.142Z,81.41
2022-11-06T17:20:20.124Z,81.86
2022-11-06T17:21:20.129Z,82.17
2022-11-06T17:22:20.114Z,82.57
2022-11-06T17:23:20.307Z,82.21
2022-11-06T17:24:36.847Z,82.82
2022-11-06T17:25:21.073Z,82.82
2022-11-06T17:26:20.056Z,82.82
2022-11-06T17:27:20.199Z,82.62
2022-11-06T17:28:25.088Z,83.23
2022-11-06T17:29:22.280Z,83.47
2022-11-06T17:30:20.017Z,83.98
2022-11-06T17:31:19.998Z,83.47
2022-11-06T17:32:20.009Z,83.88
2022-11-06T17:33:19.993Z,83.88
2022-11-06T17:34:20.033Z,84.09
2022-11-06T17:35:19.955Z,84.09
2022-11-06T17:36:19.951Z,84.39
2022-11-06T17:37:19.931Z,83.27
2022-11-06T17:38:19.942Z,83.98
2022-11-06T17:39:24.966Z,83.27
2022-11-06T17:40:19.915Z,84.19
2022-11-06T17:41:19.893Z,83.78
2022-11-06T17:42:19.874Z,83.68
2022-11-06T17:43:19.896Z,83.68
2022-11-06T17:44:19.850Z,83.68
2022-11-06T17:45:19.843Z,83.78
2022-11-06T17:46:19.854Z,83.88
2022-11-06T17:47:19.829Z,83.47
2022-11-06T17:48:19.833Z,83.98
2022-11-06T17:49:19.793Z,84.19
2022-11-06T17:50:24.816Z,83.78
2022-11-06T17:51:19.773Z,83.68
2022-11-06T17:52:19.775Z,83.47